sensor_id;sensor_type;location;lat;lon;timestamp;pressure;altitude;pressure_sealevel;temperature;humidity
13709;BME280;54933;51.908;7.730;2022-08-19T00:01:48;100719.66;;;24.23;100.00
13709;BME280;54933;51.908;7.730;2022-08-19T00:04:16;100721.28;;;24.24;100.00
13709;BME280;54933;51.908;7.730;2022-08-19T00:06:44;100719.66;;;24.23;100.00
13709;BME280;54933;51.908;7.730;2022-08-19T00:09:12;100718.56;;;24.24;100.00
13709;BME280;54933;51.908;7.730;2022-08-19T00:11:38;100728.38;;;24.25;100.00
13709;BME280;54933;51.908;7.730;2022-08-19T00:14:05;100732.16;;;24.24;100.00
13709;BME280;54933;51.908;7.730;2022-08-19T00:16:31;100720.47;;;24.23;100.00
13709;BME280;54933;51.908;7.730;2022-08-19T00:18:57;100724.00;;;24.24;100.00
13709;BME280;54933;51.908;7.730;2022-08-19T00:21:24;100725.09;;;24.23;100.00
13709;BME280;54933;51.908;7.730;2022-08-19T00:23:49;100734.88;;;24.24;100.00
13709;BME280;54933;51.908;7.730;2022-08-19T00:26:15;100734.88;;;24.24;100.00
13709;BME280;54933;51.908;7.730;2022-08-19T00:28:40;100741.13;;;24.24;100.00
13709;BME280;54933;51.908;7.730;2022-08-19T00:31:07;100733.00;;;24.24;100.00
13709;BME280;54933;51.908;7.730;2022-08-19T00:33:33;100727.56;;;24.24;100.00
13709;BME280;54933;51.908;7.730;2022-08-19T00:36:03;100733.00;;;24.24;100.00
13709;BME280;54933;51.908;7.730;2022-08-19T00:38:30;100728.59;;;24.23;100.00
13709;BME280;54933;51.908;7.730;2022-08-19T00:40:55;100734.88;;;24.24;100.00
13709;BME280;54933;51.908;7.730;2022-08-19T00:43:23;100737.59;;;24.24;100.00
13709;BME280;54933;51.908;7.730;2022-08-19T00:45:50;100730.50;;;24.23;100.00
13709;BME280;54933;51.908;7.730;2022-08-19T00:48:17;100725.88;;;24.23;100.00
13709;BME280;54933;51.908;7.730;2022-08-19T00:50:44;100731.31;;;24.23;100.00
13709;BME280;54933;51.908;7.730;2022-08-19T00:53:12;100724.25;;;24.22;100.00
13709;BME280;54933;51.908;7.730;2022-08-19T00:55:40;100723.16;;;24.23;100.00
13709;BME280;54933;51.908;7.730;2022-08-19T00:58:10;100720.47;;;24.23;100.00
13709;BME280;54933;51.908;7.730;2022-08-19T01:00:37;100706.88;;;24.23;100.00
13709;BME280;54933;51.908;7.730;2022-08-19T01:03:05;100706.06;;;24.23;100.00
13709;BME280;54933;51.908;7.730;2022-08-19T01:05:31;100708.78;;;24.23;100.00
13709;BME280;54933;51.908;7.730;2022-08-19T01:07:59;100697.94;;;24.23;100.00
13709;BME280;54933;51.908;7.730;2022-08-19T01:10:29;100697.94;;;24.23;100.00
13709;BME280;54933;51.908;7.730;2022-08-19T01:12:55;100697.94;;;24.23;100.00
13709;BME280;54933;51.908;7.730;2022-08-19T01:15:25;100699.81;;;24.22;100.00
13709;BME280;54933;51.908;7.730;2022-08-19T01:17:53;100707.13;;;24.22;100.00
13709;BME280;54933;51.908;7.730;2022-08-19T01:20:21;100707.97;;;24.22;100.00
13709;BME280;54933;51.908;7.730;2022-08-19T01:22:53;100706.06;;;24.23;100.00
13709;BME280;54933;51.908;7.730;2022-08-19T01:25:21;100697.94;;;24.23;100.00
13709;BME280;54933;51.908;7.730;2022-08-19T01:27:49;100698.97;;;24.22;100.00
13709;BME280;54933;51.908;7.730;2022-08-19T01:30:28;100701.69;;;24.22;100.00
13709;BME280;54933;51.908;7.730;2022-08-19T01:32:54;100707.13;;;24.22;100.00
13709;BME280;54933;51.908;7.730;2022-08-19T01:35:21;100718.81;;;24.22;100.00
13709;BME280;54933;51.908;7.730;2022-08-19T01:37:57;100709.84;;;24.22;100.00
13709;BME280;54933;51.908;7.730;2022-08-19T01:40:26;100707.13;;;24.22;100.00
13709;BME280;54933;51.908;7.730;2022-08-19T01:42:53;100705.47;;;24.21;100.00
13709;BME280;54933;51.908;7.730;2022-08-19T01:45:21;100701.69;;;24.22;100.00
13709;BME280;54933;51.908;7.730;2022-08-19T01:47:48;100705.47;;;24.21;100.00
13709;BME280;54933;51.908;7.730;2022-08-19T01:50:13;100703.59;;;24.21;100.00
13709;BME280;54933;51.908;7.730;2022-08-19T01:52:41;100705.47;;;24.21;100.00
13709;BME280;54933;51.908;7.730;2022-08-19T01:55:09;100710.06;;;24.20;100.00
13709;BME280;54933;51.908;7.730;2022-08-19T01:57:35;100691.91;;;24.21;100.00
13709;BME280;54933;51.908;7.730;2022-08-19T02:00:05;100694.63;;;24.21;100.00
13709;BME280;54933;51.908;7.730;2022-08-19T02:02:31;100690.22;;;24.20;100.00
13709;BME280;54933;51.908;7.730;2022-08-19T02:04:56;100694.63;;;24.21;100.00
13709;BME280;54933;51.908;7.730;2022-08-19T02:07:22;100691.91;;;24.21;100.00
13709;BME280;54933;51.908;7.730;2022-08-19T02:09:48;100703.81;;;24.20;100.00
13709;BME280;54933;51.908;7.730;2022-08-19T02:12:14;100692.94;;;24.20;100.00
13709;BME280;54933;51.908;7.730;2022-08-19T02:14:40;100695.66;;;24.20;100.00
13709;BME280;54933;51.908;7.730;2022-08-19T02:17:05;100691.06;;;24.20;100.00
13709;BME280;54933;51.908;7.730;2022-08-19T02:19:30;100692.94;;;24.20;100.00
13709;BME280;54933;51.908;7.730;2022-08-19T02:21:58;100678.34;;;24.21;100.00
13709;BME280;54933;51.908;7.730;2022-08-19T02:24:23;100685.63;;;24.20;100.00
13709;BME280;54933;51.908;7.730;2022-08-19T02:26:49;100685.63;;;24.20;100.00
13709;BME280;54933;51.908;7.730;2022-08-19T02:29:14;100689.19;;;24.21;100.00
13709;BME280;54933;51.908;7.730;2022-08-19T02:31:39;100677.50;;;24.20;100.00
13709;BME280;54933;51.908;7.730;2022-08-19T02:34:05;100675.84;;;24.19;100.00
13709;BME280;54933;51.908;7.730;2022-08-19T02:36:30;100682.09;;;24.20;100.00
13709;BME280;54933;51.908;7.730;2022-08-19T02:38:55;100678.56;;;24.19;100.00
13709;BME280;54933;51.908;7.730;2022-08-19T02:41:27;100682.94;;;24.20;100.00
13709;BME280;54933;51.908;7.730;2022-08-19T02:43:56;100692.94;;;24.20;100.00
13709;BME280;54933;51.908;7.730;2022-08-19T02:46:26;100698.38;;;24.20;100.00
13709;BME280;54933;51.908;7.730;2022-08-19T02:48:54;100692.94;;;24.20;100.00
13709;BME280;54933;51.908;7.730;2022-08-19T02:51:25;100687.53;;;24.20;100.00
13709;BME280;54933;51.908;7.730;2022-08-19T02:53:51;100684.81;;;24.20;100.00
13709;BME280;54933;51.908;7.730;2022-08-19T02:56:16;100678.56;;;24.19;100.00
13709;BME280;54933;51.908;7.730;2022-08-19T02:58:42;100673.94;;;24.20;100.00
13709;BME280;54933;51.908;7.730;2022-08-19T03:01:08;100675.84;;;24.19;100.00
13709;BME280;54933;51.908;7.730;2022-08-19T03:03:35;100676.66;;;24.20;100.00
13709;BME280;54933;51.908;7.730;2022-08-19T03:06:19;100674.19;;;24.18;100.00
13709;BME280;54933;51.908;7.730;2022-08-19T03:08:46;100671.22;;;24.20;100.00
13709;BME280;54933;51.908;7.730;2022-08-19T03:11:21;100675.03;;;24.19;100.00
13709;BME280;54933;51.908;7.730;2022-08-19T03:13:47;100675.03;;;24.19;100.00
13709;BME280;54933;51.908;7.730;2022-08-19T03:16:19;100679.63;;;24.18;100.00
13709;BME280;54933;51.908;7.730;2022-08-19T03:18:45;100677.75;;;24.19;100.00
13709;BME280;54933;51.908;7.730;2022-08-19T03:21:19;100675.03;;;24.19;100.00
13709;BME280;54933;51.908;7.730;2022-08-19T03:23:45;100683.16;;;24.19;100.00
13709;BME280;54933;51.908;7.730;2022-08-19T03:26:10;100688.59;;;24.19;100.00
13709;BME280;54933;51.908;7.730;2022-08-19T03:28:36;100689.69;;;24.18;100.00
13709;BME280;54933;51.908;7.730;2022-08-19T03:31:05;100692.38;;;24.18;100.00
13709;BME280;54933;51.908;7.730;2022-08-19T03:33:32;100689.69;;;24.18;100.00
13709;BME280;54933;51.908;7.730;2022-08-19T03:36:07;100690.72;;;24.17;100.00
13709;BME280;54933;51.908;7.730;2022-08-19T03:38:35;100702.16;;;24.19;100.00
13709;BME280;54933;51.908;7.730;2022-08-19T03:41:06;100690.47;;;24.18;100.00
13709;BME280;54933;51.908;7.730;2022-08-19T03:43:34;100686.13;;;24.17;100.00
13709;BME280;54933;51.908;7.730;2022-08-19T03:46:05;100688.84;;;24.17;100.00
13709;BME280;54933;51.908;7.730;2022-08-19T03:48:33;100682.56;;;24.17;100.00
13709;BME280;54933;51.908;7.730;2022-08-19T03:50:59;100692.63;;;24.16;100.00
13709;BME280;54933;51.908;7.730;2022-08-19T03:53:25;100698.88;;;24.17;100.00
13709;BME280;54933;51.908;7.730;2022-08-19T03:55:51;100695.59;;;24.15;100.00
13709;BME280;54933;51.908;7.730;2022-08-19T03:58:18;100702.66;;;24.16;100.00
13709;BME280;54933;51.908;7.730;2022-08-19T04:00:43;100698.31;;;24.15;100.00
13709;BME280;54933;51.908;7.730;2022-08-19T04:03:08;100689.09;;;24.16;100.00
13709;BME280;54933;51.908;7.730;2022-08-19T04:05:33;100695.59;;;24.15;100.00
13709;BME280;54933;51.908;7.730;2022-08-19T04:07:59;100689.31;;;24.14;100.00
13709;BME280;54933;51.908;7.730;2022-08-19T04:10:25;100701.03;;;24.15;100.00
13709;BME280;54933;51.908;7.730;2022-08-19T04:12:50;100702.91;;;24.14;100.00
13709;BME280;54933;51.908;7.730;2022-08-19T04:15:16;100696.38;;;24.15;100.00
13709;BME280;54933;51.908;7.730;2022-08-19T04:17:41;100704.53;;;24.15;100.00
13709;BME280;54933;51.908;7.730;2022-08-19T04:20:07;100704.53;;;24.15;100.00
13709;BME280;54933;51.908;7.730;2022-08-19T04:22:32;100706.22;;;24.16;100.00
13709;BME280;54933;51.908;7.730;2022-08-19T04:24:57;100702.66;;;24.16;100.00
13709;BME280;54933;51.908;7.730;2022-08-19T04:27:23;100707.84;;;24.17;100.00
13709;BME280;54933;51.908;7.730;2022-08-19T04:29:48;100691.78;;;24.16;100.00
13709;BME280;54933;51.908;7.730;2022-08-19T04:32:13;100698.88;;;24.17;100.00
13709;BME280;54933;51.908;7.730;2022-08-19T04:34:40;100711.41;;;24.18;100.00
13709;BME280;54933;51.908;7.730;2022-08-19T04:37:07;100697.22;;;24.16;100.00
13709;BME280;54933;51.908;7.730;2022-08-19T04:39:37;100702.66;;;24.16;100.00
13709;BME280;54933;51.908;7.730;2022-08-19T04:42:21;100700.78;;;24.16;100.00
13709;BME280;54933;51.908;7.730;2022-08-19T04:45:10;100704.28;;;24.17;100.00
13709;BME280;54933;51.908;7.730;2022-08-19T04:47:37;100705.13;;;24.17;100.00
13709;BME280;54933;51.908;7.730;2022-08-19T04:50:03;100705.13;;;24.17;100.00
13709;BME280;54933;51.908;7.730;2022-08-19T04:52:29;100700.53;;;24.18;100.00
13709;BME280;54933;51.908;7.730;2022-08-19T04:54:57;100700.53;;;24.18;100.00
13709;BME280;54933;51.908;7.730;2022-08-19T04:57:23;100700.53;;;24.18;100.00
13709;BME280;54933;51.908;7.730;2022-08-19T04:59:48;100702.16;;;24.19;100.00
13709;BME280;54933;51.908;7.730;2022-08-19T05:02:13;100709.47;;;24.18;100.00
13709;BME280;54933;51.908;7.730;2022-08-19T05:04:39;100713.03;;;24.19;100.00
13709;BME280;54933;51.908;7.730;2022-08-19T05:07:05;100717.63;;;24.18;100.00
13709;BME280;54933;51.908;7.730;2022-08-19T05:09:31;100722.25;;;24.18;100.00
13709;BME280;54933;51.908;7.730;2022-08-19T05:11:57;100729.31;;;24.19;100.00
13709;BME280;54933;51.908;7.730;2022-08-19T05:14:22;100734.75;;;24.19;100.00
13709;BME280;54933;51.908;7.730;2022-08-19T05:16:48;100732.03;;;24.19;100.00
13709;BME280;54933;51.908;7.730;2022-08-19T05:19:13;100732.03;;;24.19;100.00
13709;BME280;54933;51.908;7.730;2022-08-19T05:21:59;100735.00;;;24.17;99.37
13709;BME280;54933;51.908;7.730;2022-08-19T05:24:43;100732.28;;;24.17;97.62
13709;BME280;54933;51.908;7.730;2022-08-19T05:27:08;100735.00;;;24.17;97.40
13709;BME280;54933;51.908;7.730;2022-08-19T05:29:33;100732.03;;;24.19;97.57
13709;BME280;54933;51.908;7.730;2022-08-19T05:32:00;100740.19;;;24.19;98.26
13709;BME280;54933;51.908;7.730;2022-08-19T05:34:27;100733.13;;;24.18;98.79
13709;BME280;54933;51.908;7.730;2022-08-19T05:36:57;100737.47;;;24.19;99.21
13709;BME280;54933;51.908;7.730;2022-08-19T05:39:25;100729.31;;;24.19;99.83
13709;BME280;54933;51.908;7.730;2022-08-19T05:41:54;100728.50;;;24.18;100.00
13709;BME280;54933;51.908;7.730;2022-08-19T05:44:23;100728.50;;;24.18;100.00
13709;BME280;54933;51.908;7.730;2022-08-19T05:46:48;100733.13;;;24.18;100.00
13709;BME280;54933;51.908;7.730;2022-08-19T05:49:15;100723.06;;;24.18;100.00
13709;BME280;54933;51.908;7.730;2022-08-19T05:51:42;100717.63;;;24.18;100.00
13709;BME280;54933;51.908;7.730;2022-08-19T05:54:08;100722.25;;;24.18;100.00
13709;BME280;54933;51.908;7.730;2022-08-19T05:56:34;100718.47;;;24.19;100.00
13709;BME280;54933;51.908;7.730;2022-08-19T05:59:06;100717.63;;;24.18;100.00
13709;BME280;54933;51.908;7.730;2022-08-19T06:01:40;100718.47;;;24.19;100.00
13709;BME280;54933;51.908;7.730;2022-08-19T06:04:06;100715.75;;;24.19;100.00
13709;BME280;54933;51.908;7.730;2022-08-19T06:06:32;100723.91;;;24.19;100.00
13709;BME280;54933;51.908;7.730;2022-08-19T06:09:00;100718.47;;;24.19;100.00
13709;BME280;54933;51.908;7.730;2022-08-19T06:14:02;100713.03;;;24.19;100.00
13709;BME280;54933;51.908;7.730;2022-08-19T06:16:28;100720.09;;;24.20;100.00
13709;BME280;54933;51.908;7.730;2022-08-19T06:18:56;100714.69;;;24.20;100.00
13709;BME280;54933;51.908;7.730;2022-08-19T06:21:24;100720.94;;;24.20;100.00
13709;BME280;54933;51.908;7.730;2022-08-19T06:23:50;100715.75;;;24.19;100.00
13709;BME280;54933;51.908;7.730;2022-08-19T06:26:18;100715.75;;;24.19;100.00
13709;BME280;54933;51.908;7.730;2022-08-19T06:28:45;100717.38;;;24.20;100.00
13709;BME280;54933;51.908;7.730;2022-08-19T06:31:21;100718.47;;;24.19;100.00
13709;BME280;54933;51.908;7.730;2022-08-19T06:33:48;100723.91;;;24.19;100.00
13709;BME280;54933;51.908;7.730;2022-08-19T06:36:21;100723.91;;;24.19;100.00
13709;BME280;54933;51.908;7.730;2022-08-19T06:38:49;100713.03;;;24.19;100.00
13709;BME280;54933;51.908;7.730;2022-08-19T06:41:14;100714.69;;;24.20;100.00
13709;BME280;54933;51.908;7.730;2022-08-19T06:43:39;100707.59;;;24.19;100.00
13709;BME280;54933;51.908;7.730;2022-08-19T06:46:11;100706.53;;;24.20;100.00
13709;BME280;54933;51.908;7.730;2022-08-19T06:48:36;100714.69;;;24.20;100.00
13709;BME280;54933;51.908;7.730;2022-08-19T06:51:02;100708.19;;;24.21;100.00
13709;BME280;54933;51.908;7.730;2022-08-19T06:53:30;100716.34;;;24.21;100.00
13709;BME280;54933;51.908;7.730;2022-08-19T06:55:55;100703.81;;;24.20;100.00
13709;BME280;54933;51.908;7.730;2022-08-19T06:58:25;100702.75;;;24.21;100.00
13709;BME280;54933;51.908;7.730;2022-08-19T07:00:50;100696.50;;;24.20;100.00
13709;BME280;54933;51.908;7.730;2022-08-19T07:03:16;100706.53;;;24.20;100.00
13709;BME280;54933;51.908;7.730;2022-08-19T07:05:42;100708.19;;;24.21;100.00
13709;BME280;54933;51.908;7.730;2022-08-19T07:08:08;100713.63;;;24.21;100.00
13709;BME280;54933;51.908;7.730;2022-08-19T07:10:34;100701.94;;;24.20;100.00
13709;BME280;54933;51.908;7.730;2022-08-19T07:13:02;100717.19;;;24.21;100.00
13709;BME280;54933;51.908;7.730;2022-08-19T07:15:28;100710.06;;;24.20;100.00
13709;BME280;54933;51.908;7.730;2022-08-19T07:17:53;100718.22;;;24.20;100.00
13709;BME280;54933;51.908;7.730;2022-08-19T07:20:18;100727.19;;;24.21;100.00
13709;BME280;54933;51.908;7.730;2022-08-19T07:22:44;100714.69;;;24.20;100.00
13709;BME280;54933;51.908;7.730;2022-08-19T07:25:10;100720.09;;;24.20;100.00
13709;BME280;54933;51.908;7.730;2022-08-19T07:27:38;100717.38;;;24.20;100.00
13709;BME280;54933;51.908;7.730;2022-08-19T07:30:04;100720.09;;;24.20;100.00
13709;BME280;54933;51.908;7.730;2022-08-19T07:32:30;100714.69;;;24.20;100.00
13709;BME280;54933;51.908;7.730;2022-08-19T07:34:55;100719.31;;;24.19;100.00
13709;BME280;54933;51.908;7.730;2022-08-19T07:37:21;100724.72;;;24.19;100.00
13709;BME280;54933;51.908;7.730;2022-08-19T07:39:46;100729.31;;;24.19;100.00
13709;BME280;54933;51.908;7.730;2022-08-19T07:42:12;100734.75;;;24.19;100.00
13709;BME280;54933;51.908;7.730;2022-08-19T07:44:39;100739.13;;;24.20;100.00
13709;BME280;54933;51.908;7.730;2022-08-19T07:47:05;100741.03;;;24.19;100.00
13709;BME280;54933;51.908;7.730;2022-08-19T07:49:32;100745.63;;;24.19;100.00
13709;BME280;54933;51.908;7.730;2022-08-19T07:52:02;100741.25;;;24.18;100.00
13709;BME280;54933;51.908;7.730;2022-08-19T07:54:31;100741.03;;;24.19;100.00
13709;BME280;54933;51.908;7.730;2022-08-19T07:56:57;100747.25;;;24.20;100.00
13709;BME280;54933;51.908;7.730;2022-08-19T07:59:23;100742.91;;;24.19;100.00
13709;BME280;54933;51.908;7.730;2022-08-19T08:01:49;100740.19;;;24.19;100.00
13709;BME280;54933;51.908;7.730;2022-08-19T08:04:15;100735.59;;;24.19;100.00
13709;BME280;54933;51.908;7.730;2022-08-19T08:06:59;100752.69;;;24.20;100.00
13709;BME280;54933;51.908;7.730;2022-08-19T08:09:44;100747.25;;;24.20;100.00
13709;BME280;54933;51.908;7.730;2022-08-19T08:12:16;100757.31;;;24.19;100.00
13709;BME280;54933;51.908;7.730;2022-08-19T08:14:45;100753.75;;;24.19;100.00
13709;BME280;54933;51.908;7.730;2022-08-19T08:17:12;100756.47;;;24.19;100.00
13709;BME280;54933;51.908;7.730;2022-08-19T08:19:39;100767.94;;;24.21;100.00
13709;BME280;54933;51.908;7.730;2022-08-19T08:22:06;100775.50;;;24.19;100.00
13709;BME280;54933;51.908;7.730;2022-08-19T08:24:33;100777.13;;;24.20;100.00
13709;BME280;54933;51.908;7.730;2022-08-19T08:26:59;100783.63;;;24.19;100.00
13709;BME280;54933;51.908;7.730;2022-08-19T08:29:29;100780.69;;;24.20;100.00
13709;BME280;54933;51.908;7.730;2022-08-19T08:31:55;100788.00;;;24.20;100.00
13709;BME280;54933;51.908;7.730;2022-08-19T08:34:22;100788.00;;;24.20;100.00
13709;BME280;54933;51.908;7.730;2022-08-19T08:36:47;100783.41;;;24.20;100.00
13709;BME280;54933;51.908;7.730;2022-08-19T08:39:15;100777.13;;;24.20;100.00
13709;BME280;54933;51.908;7.730;2022-08-19T08:42:05;100784.22;;;24.21;100.00
13709;BME280;54933;51.908;7.730;2022-08-19T08:44:42;100781.50;;;24.21;100.00
13709;BME280;54933;51.908;7.730;2022-08-19T08:47:15;100781.50;;;24.21;100.00
13709;BME280;54933;51.908;7.730;2022-08-19T08:49:53;100776.09;;;24.21;100.00
13709;BME280;54933;51.908;7.730;2022-08-19T08:52:24;100780.44;;;24.22;100.00
13709;BME280;54933;51.908;7.730;2022-08-19T08:54:54;100776.09;;;24.21;100.00
13709;BME280;54933;51.908;7.730;2022-08-19T08:57:37;100776.09;;;24.21;100.00
13709;BME280;54933;51.908;7.730;2022-08-19T09:00:06;100782.34;;;24.21;100.00
13709;BME280;54933;51.908;7.730;2022-08-19T09:02:32;100778.81;;;24.21;100.00
13709;BME280;54933;51.908;7.730;2022-08-19T09:04:58;100770.91;;;24.19;100.00
13709;BME280;54933;51.908;7.730;2022-08-19T09:07:42;100775.25;;;24.20;100.00
13709;BME280;54933;51.908;7.730;2022-08-19T09:10:32;100778.81;;;24.21;100.00
13709;BME280;54933;51.908;7.730;2022-08-19T09:15:36;100763.56;;;24.20;100.00
13709;BME280;54933;51.908;7.730;2022-08-19T09:18:04;100763.56;;;24.20;100.00
13709;BME280;54933;51.908;7.730;2022-08-19T09:20:29;100769.81;;;24.20;100.00
13709;BME280;54933;51.908;7.730;2022-08-19T09:22:56;100770.66;;;24.21;100.00
13709;BME280;54933;51.908;7.730;2022-08-19T09:25:22;100769.81;;;24.20;100.00
13709;BME280;54933;51.908;7.730;2022-08-19T09:27:49;100758.97;;;24.20;100.00
13709;BME280;54933;51.908;7.730;2022-08-19T09:30:27;100766.88;;;24.22;100.00
13709;BME280;54933;51.908;7.730;2022-08-19T09:32:53;100766.06;;;24.21;100.00
13709;BME280;54933;51.908;7.730;2022-08-19T09:35:20;100766.88;;;24.22;100.00
13709;BME280;54933;51.908;7.730;2022-08-19T09:37:47;100761.44;;;24.22;100.00
13709;BME280;54933;51.908;7.730;2022-08-19T09:40:14;100780.44;;;24.22;100.00
13709;BME280;54933;51.908;7.730;2022-08-19T09:42:40;100767.69;;;24.22;100.00
13709;BME280;54933;51.908;7.730;2022-08-19T09:45:08;100769.56;;;24.22;100.00
13709;BME280;54933;51.908;7.730;2022-08-19T09:47:34;100766.88;;;24.22;100.00
13709;BME280;54933;51.908;7.730;2022-08-19T09:50:06;100765.22;;;24.21;100.00
13709;BME280;54933;51.908;7.730;2022-08-19T09:52:32;100758.72;;;24.22;100.00
13709;BME280;54933;51.908;7.730;2022-08-19T09:54:57;100766.88;;;24.22;100.00
13709;BME280;54933;51.908;7.730;2022-08-19T09:57:22;100761.44;;;24.22;100.00
13709;BME280;54933;51.908;7.730;2022-08-19T09:59:47;100753.28;;;24.22;100.00
13709;BME280;54933;51.908;7.730;2022-08-19T10:02:13;100760.38;;;24.23;100.00
13709;BME280;54933;51.908;7.730;2022-08-19T10:04:39;100761.44;;;24.22;100.00
13709;BME280;54933;51.908;7.730;2022-08-19T10:07:23;100763.09;;;24.23;100.00
13709;BME280;54933;51.908;7.730;2022-08-19T10:09:49;100752.25;;;24.23;100.00
13709;BME280;54933;51.908;7.730;2022-08-19T10:12:14;100763.09;;;24.23;100.00
13709;BME280;54933;51.908;7.730;2022-08-19T10:14:40;100768.53;;;24.23;100.00
13709;BME280;54933;51.908;7.730;2022-08-19T10:17:05;100755.75;;;24.23;100.00
13709;BME280;54933;51.908;7.730;2022-08-19T10:19:31;100753.03;;;24.23;100.00
13709;BME280;54933;51.908;7.730;2022-08-19T10:22:03;100750.31;;;24.23;100.00
13709;BME280;54933;51.908;7.730;2022-08-19T10:24:29;100755.53;;;24.25;100.00
13709;BME280;54933;51.908;7.730;2022-08-19T10:26:56;100754.72;;;24.24;100.00
13709;BME280;54933;51.908;7.730;2022-08-19T10:29:22;100757.19;;;24.26;100.00
13709;BME280;54933;51.908;7.730;2022-08-19T10:31:47;100749.03;;;24.26;100.00
13709;BME280;54933;51.908;7.730;2022-08-19T10:34:13;100754.47;;;24.26;100.00
13709;BME280;54933;51.908;7.730;2022-08-19T10:36:38;100748.81;;;24.27;100.00
13709;BME280;54933;51.908;7.730;2022-08-19T10:39:06;100758.81;;;24.27;100.00
13709;BME280;54933;51.908;7.730;2022-08-19T10:41:35;100747.13;;;24.26;100.00
13709;BME280;54933;51.908;7.730;2022-08-19T10:44:04;100742.53;;;24.27;100.00
13709;BME280;54933;51.908;7.730;2022-08-19T10:46:31;100742.53;;;24.27;100.00
13709;BME280;54933;51.908;7.730;2022-08-19T10:48:58;100736.28;;;24.26;100.00
13709;BME280;54933;51.908;7.730;2022-08-19T10:51:23;100744.41;;;24.26;100.00
13709;BME280;54933;51.908;7.730;2022-08-19T10:54:07;100741.69;;;24.26;100.00
13709;BME280;54933;51.908;7.730;2022-08-19T10:56:33;100742.53;;;24.27;100.00
13709;BME280;54933;51.908;7.730;2022-08-19T10:59:25;100730.03;;;24.26;100.00
13709;BME280;54933;51.908;7.730;2022-08-19T11:01:54;100738.78;;;24.28;100.00
13709;BME280;54933;51.908;7.730;2022-08-19T11:04:20;100740.91;;;24.26;100.00
13709;BME280;54933;51.908;7.730;2022-08-19T11:06:47;100737.09;;;24.27;100.00
13709;BME280;54933;51.908;7.730;2022-08-19T11:09:15;100736.28;;;24.26;100.00
13709;BME280;54933;51.908;7.730;2022-08-19T11:11:41;100734.38;;;24.27;100.00
13709;BME280;54933;51.908;7.730;2022-08-19T11:14:08;100727.06;;;24.27;100.00
13709;BME280;54933;51.908;7.730;2022-08-19T11:16:35;100734.38;;;24.27;100.00
13709;BME280;54933;51.908;7.730;2022-08-19T11:19:00;100731.66;;;24.27;100.00
13709;BME280;54933;51.908;7.730;2022-08-19T11:21:30;100727.06;;;24.27;100.00
13709;BME280;54933;51.908;7.730;2022-08-19T11:23:59;100731.66;;;24.27;100.00
13709;BME280;54933;51.908;7.730;2022-08-19T11:26:25;100727.06;;;24.27;100.00
13709;BME280;54933;51.908;7.730;2022-08-19T11:28:51;100727.06;;;24.27;100.00
13709;BME280;54933;51.908;7.730;2022-08-19T11:31:22;100731.66;;;24.27;100.00
13709;BME280;54933;51.908;7.730;2022-08-19T11:33:48;100727.06;;;24.27;100.00
13709;BME280;54933;51.908;7.730;2022-08-19T11:36:19;100734.38;;;24.27;100.00
13709;BME280;54933;51.908;7.730;2022-08-19T11:38:46;100721.66;;;24.27;100.00
13709;BME280;54933;51.908;7.730;2022-08-19T11:41:14;100718.09;;;24.27;100.00
13709;BME280;54933;51.908;7.730;2022-08-19T11:43:40;100703.69;;;24.26;100.00
13709;BME280;54933;51.908;7.730;2022-08-19T11:46:07;100703.47;;;24.28;100.00
13709;BME280;54933;51.908;7.730;2022-08-19T11:48:33;100699.91;;;24.27;100.00
13709;BME280;54933;51.908;7.730;2022-08-19T11:50:58;100706.19;;;24.28;100.00
13709;BME280;54933;51.908;7.730;2022-08-19T11:53:24;100699.91;;;24.27;100.00
13709;BME280;54933;51.908;7.730;2022-08-19T11:55:53;100706.19;;;24.28;100.00
13709;BME280;54933;51.908;7.730;2022-08-19T11:58:21;100708.91;;;24.28;100.00
13709;BME280;54933;51.908;7.730;2022-08-19T12:00:47;100700.75;;;24.28;100.00
13709;BME280;54933;51.908;7.730;2022-08-19T12:03:13;100697.19;;;24.27;100.00
13709;BME280;54933;51.908;7.730;2022-08-19T12:05:39;100701.78;;;24.27;100.00
13709;BME280;54933;51.908;7.730;2022-08-19T12:08:05;100689.88;;;24.28;100.00
13709;BME280;54933;51.908;7.730;2022-08-19T12:10:30;100700.75;;;24.28;100.00
13709;BME280;54933;51.908;7.730;2022-08-19T12:12:56;100697.19;;;24.27;100.00
13709;BME280;54933;51.908;7.730;2022-08-19T12:15:21;100691.53;;;24.29;100.00
13709;BME280;54933;51.908;7.730;2022-08-19T12:17:46;100700.75;;;24.28;100.00
13709;BME280;54933;51.908;7.730;2022-08-19T12:20:13;100692.59;;;24.28;100.00
13709;BME280;54933;51.908;7.730;2022-08-19T12:22:41;100694.50;;;24.27;100.00
13709;BME280;54933;51.908;7.730;2022-08-19T12:25:10;100700.75;;;24.28;100.00
13709;BME280;54933;51.908;7.730;2022-08-19T12:27:36;100689.88;;;24.28;100.00
13709;BME280;54933;51.908;7.730;2022-08-19T12:30:03;100691.53;;;24.29;100.00
13709;BME280;54933;51.908;7.730;2022-08-19T12:32:28;100687.19;;;24.28;100.00
13709;BME280;54933;51.908;7.730;2022-08-19T12:34:54;100686.09;;;24.29;100.00
13709;BME280;54933;51.908;7.730;2022-08-19T12:37:20;100691.53;;;24.29;100.00
13709;BME280;54933;51.908;7.730;2022-08-19T12:39:45;100682.31;;;24.30;100.00
13709;BME280;54933;51.908;7.730;2022-08-19T12:42:12;100679.59;;;24.30;100.00
13709;BME280;54933;51.908;7.730;2022-08-19T12:44:39;100695.88;;;24.30;100.00
13709;BME280;54933;51.908;7.730;2022-08-19T12:47:05;100683.97;;;24.31;100.00
13709;BME280;54933;51.908;7.730;2022-08-19T12:49:32;100689.41;;;24.31;100.00